createdAt,value
2023-06-03T00:04:49.205Z,42.49
2023-06-03T00:09:53.969Z,43.46
2023-06-03T00:14:57.382Z,43.95
2023-06-03T00:20:07.999Z,43.65
2023-06-03T00:25:13.251Z,43.91
2023-06-03T00:30:16.809Z,44.96
2023-06-03T00:35:21.611Z,44.40
2023-06-03T00:40:26.419Z,44.60
2023-06-03T00:45:29.880Z,45.43
2023-06-03T00:50:34.159Z,44.17
2023-06-03T00:55:39.528Z,45.20
2023-06-03T01:00:42.993Z,45.68
2023-06-03T01:05:47.661Z,46.45
2023-06-03T01:11:02.781Z,45.24
2023-06-03T01:16:08.434Z,46.26
2023-06-03T01:21:13.673Z,47.51
2023-06-03T01:26:20.271Z,46.64
2023-06-03T01:31:23.999Z,47.19
2023-06-03T01:36:27.399Z,47.25
2023-06-03T01:41:33.372Z,47.44
2023-06-03T01:46:38.126Z,47.71
2023-06-03T01:51:41.627Z,48.13
2023-06-03T01:56:46.854Z,48.12
2023-06-03T02:01:51.483Z,46.37
2023-06-03T02:06:56.737Z,46.88
2023-06-03T02:12:02.485Z,48.48
2023-06-03T02:17:06.419Z,49.24
2023-06-03T02:22:09.901Z,48.79
2023-06-03T02:27:15.639Z,48.59
2023-06-03T02:32:19.476Z,47.58
2023-06-03T02:37:23.906Z,48.58
2023-06-03T02:42:28.701Z,49.74
2023-06-03T02:47:32.958Z,49.14
2023-06-03T02:52:36.508Z,49.70
2023-06-03T02:57:42.870Z,49.42
2023-06-03T03:02:46.349Z,50.93
2023-06-03T03:07:49.844Z,50.43
2023-06-03T03:12:55.151Z,50.43
2023-06-03T03:17:59.762Z,51.07
2023-06-03T03:23:04.638Z,51.54
2023-06-03T03:28:09.564Z,51.59
2023-06-03T03:33:16.315Z,51.55
2023-06-03T03:38:20.880Z,50.65
2023-06-03T03:43:26.423Z,50.86
2023-06-03T03:48:32.371Z,51.68
2023-06-03T03:53:38.557Z,52.48
2023-06-03T03:58:49.849Z,51.57
2023-06-03T04:03:59.316Z,45.58
2023-06-03T04:09:03.982Z,52.70
2023-06-03T04:14:11.658Z,51.96
2023-06-03T04:19:19.975Z,53.36
2023-06-03T04:24:24.001Z,52.97
2023-06-03T04:29:28.802Z,52.51
2023-06-03T04:34:32.592Z,53.52
2023-06-03T04:39:39.326Z,53.25
2023-06-03T04:44:44.434Z,52.97
2023-06-03T04:49:49.374Z,53.65
2023-06-03T04:54:53.029Z,53.61
2023-06-03T05:00:06.613Z,53.79
2023-06-03T05:05:11.259Z,54.26
2023-06-03T05:10:15.827Z,54.22
2023-06-03T05:15:21.413Z,53.96
2023-06-03T05:20:26.036Z,53.62
2023-06-03T05:25:29.970Z,53.34
2023-06-03T05:30:35.161Z,53.38
2023-06-03T05:35:39.589Z,53.86
2023-06-03T05:40:42.958Z,54.79
2023-06-03T05:45:49.268Z,54.59
2023-06-03T05:50:54.281Z,53.97
2023-06-03T05:55:59.705Z,53.73
2023-06-03T06:01:06.488Z,53.21
2023-06-03T06:06:10.120Z,53.20
2023-06-03T06:11:15.112Z,52.32
2023-06-03T06:16:20.199Z,53.30
2023-06-03T06:21:23.666Z,52.40
2023-06-03T06:26:27.743Z,51.97
2023-06-03T06:31:35.329Z,51.36
2023-06-03T06:36:50.529Z,50.42
2023-06-03T06:42:08.847Z,50.92
2023-06-03T06:47:14.584Z,50.93
2023-06-03T06:52:20.236Z,50.26
2023-06-03T06:57:26.185Z,49.50
2023-06-03T07:02:32.134Z,49.37
2023-06-03T07:07:36.023Z,49.85
2023-06-03T07:12:40.113Z,48.60
2023-06-03T07:17:50.521Z,48.99
2023-06-03T07:22:54.246Z,49.44
2023-06-03T07:27:57.806Z,49.07
2023-06-03T07:33:04.046Z,47.70
2023-06-03T07:38:08.224Z,47.95
2023-06-03T07:43:13.345Z,46.46
2023-06-03T07:48:18.614Z,46.69
2023-06-03T07:53:25.952Z,46.00
2023-06-03T07:58:30.124Z,45.72
2023-06-03T08:03:36.429Z,46.25
2023-06-03T08:08:40.001Z,45.97
2023-06-03T08:13:44.698Z,45.98
2023-06-03T08:18:51.751Z,44.28
2023-06-03T08:23:55.215Z,44.75
2023-06-03T08:28:59.770Z,44.04
2023-06-03T08:34:04.894Z,44.35
2023-06-03T08:39:09.169Z,43.96
2023-06-03T08:44:22.993Z,44.81
2023-06-03T08:49:42.715Z,42.83
2023-06-03T08:54:46.428Z,43.46
2023-06-03T08:59:53.614Z,43.11
2023-06-03T09:04:59.651Z,42.40
2023-06-03T09:10:04.315Z,41.07
2023-06-03T09:15:09.561Z,41.69
2023-06-03T09:20:15.498Z,41.97
2023-06-03T09:25:18.985Z,41.82
2023-06-03T09:30:22.998Z,41.70
2023-06-03T09:35:27.910Z,41.30
2023-06-03T09:45:37.174Z,40.98
2023-06-03T09:50:51.397Z,42.41
2023-06-03T09:55:54.783Z,40.10
2023-06-03T10:00:59.972Z,40.95
2023-06-03T10:06:19.184Z,41.69
2023-06-03T10:11:24.327Z,40.63
2023-06-03T10:16:27.762Z,40.48
2023-06-03T10:21:33.235Z,38.86
2023-06-03T10:26:36.774Z,38.09
2023-06-03T10:31:41.863Z,37.40
2023-06-03T10:36:51.117Z,37.84
2023-06-03T10:41:56.665Z,36.54
2023-06-03T10:47:03.584Z,38.00
2023-06-03T10:52:37.304Z,39.51
2023-06-03T10:57:52.477Z,37.91
2023-06-03T11:03:06.435Z,38.38
2023-06-03T11:08:11.205Z,35.34
2023-06-03T11:13:42.674Z,36.28
2023-06-03T11:18:46.081Z,36.54
2023-06-03T11:23:51.173Z,35.87
2023-06-03T11:28:54.846Z,36.13
2023-06-03T11:34:26.483Z,37.09
2023-06-03T11:40:00.935Z,35.71
2023-06-03T11:45:28.798Z,35.88
2023-06-03T11:50:33.635Z,34.05
2023-06-03T11:55:38.389Z,33.73
2023-06-03T12:00:41.946Z,32.68
2023-06-03T12:05:53.927Z,33.72
2023-06-03T12:10:58.813Z,34.38
2023-06-03T12:16:02.314Z,32.20
2023-06-03T12:21:21.475Z,32.96
2023-06-03T12:26:27.363Z,34.26
2023-06-03T12:31:31.167Z,34.27
2023-06-03T12:36:47.874Z,34.31
2023-06-03T12:41:53.609Z,33.15
2023-06-03T12:47:05.438Z,33.05
2023-06-03T12:57:26.071Z,32.35
2023-06-03T13:02:29.650Z,33.61
2023-06-03T13:07:35.755Z,31.18
2023-06-03T13:12:42.508Z,29.72
2023-06-03T13:17:47.262Z,30.14
2023-06-03T13:22:50.883Z,30.01
2023-06-03T13:27:55.842Z,30.53
2023-06-03T13:32:59.924Z,30.27
2023-06-03T13:38:03.989Z,29.64
2023-06-03T13:43:08.835Z,28.82
2023-06-03T13:48:12.824Z,29.46
2023-06-03T13:53:16.348Z,31.66
2023-06-03T13:58:21.667Z,30.78
2023-06-03T14:03:25.083Z,29.97
2023-06-03T14:08:29.873Z,29.61
2023-06-03T14:13:34.635Z,29.29
2023-06-03T14:18:38.105Z,28.69
2023-06-03T14:23:41.543Z,28.15
2023-06-03T14:28:46.878Z,27.49
2023-06-03T14:33:50.286Z,27.98
2023-06-03T14:38:53.743Z,28.10
2023-06-03T14:43:59.505Z,28.38
2023-06-03T14:49:03.051Z,27.80
2023-06-03T14:54:06.635Z,27.88
2023-06-03T14:59:11.502Z,28.34
2023-06-03T15:04:15.567Z,29.03
2023-06-03T15:09:18.969Z,28.06
2023-06-03T15:14:24.882Z,28.58
2023-06-03T15:19:28.291Z,29.23
2023-06-03T15:24:31.924Z,29.55
2023-06-03T15:29:36.742Z,29.01
2023-06-03T15:34:40.106Z,28.95
2023-06-03T15:39:44.692Z,28.41
2023-06-03T15:44:49.443Z,27.84
2023-06-03T15:49:52.899Z,28.11
2023-06-03T15:54:56.576Z,28.87
2023-06-03T16:00:01.378Z,28.99
2023-06-03T16:05:05.488Z,28.29
2023-06-03T16:10:09.579Z,28.68
2023-06-03T16:15:14.544Z,28.86
2023-06-03T16:20:18.282Z,28.02
2023-06-03T16:25:21.818Z,28.85
2023-06-03T16:30:26.633Z,28.61
2023-06-03T16:35:30.052Z,28.70
2023-06-03T16:40:33.468Z,28.70
2023-06-03T16:45:38.510Z,28.83
2023-06-03T16:50:42.041Z,28.46
2023-06-03T16:55:45.596Z,29.38
2023-06-03T17:00:50.801Z,29.30
2023-06-03T17:05:54.165Z,28.87
2023-06-03T17:10:57.686Z,28.58
2023-06-03T17:16:03.345Z,29.15
2023-06-03T17:21:07.122Z,28.53
2023-06-03T17:26:10.929Z,29.39
2023-06-03T17:31:15.786Z,29.01
2023-06-03T17:36:19.301Z,29.59
2023-06-03T17:41:22.781Z,29.02
2023-06-03T17:46:27.655Z,29.54
2023-06-03T17:51:31.824Z,29.43
2023-06-03T17:56:35.220Z,29.39
2023-06-03T18:01:40.029Z,29.75
2023-06-03T18:06:43.495Z,29.55
2023-06-03T18:11:46.958Z,29.77
2023-06-03T18:16:51.903Z,30.18
2023-06-03T18:21:55.353Z,30.12
2023-06-03T18:26:58.894Z,30.49
2023-06-03T18:32:03.786Z,30.39
2023-06-03T18:37:08.145Z,30.30
2023-06-03T18:42:11.907Z,31.17
2023-06-03T18:47:16.784Z,30.92
2023-06-03T18:52:20.417Z,30.84
2023-06-03T18:57:23.819Z,31.60
2023-06-03T19:02:28.716Z,31.39
2023-06-03T19:07:32.302Z,31.26
2023-06-03T19:12:35.857Z,31.50
2023-06-03T19:17:40.768Z,31.51
2023-06-03T19:22:44.485Z,31.54
2023-06-03T19:27:47.907Z,31.88
2023-06-03T19:32:52.896Z,31.84
2023-06-03T19:37:56.426Z,32.45
2023-06-03T19:42:59.893Z,32.57
2023-06-03T19:48:04.895Z,32.34
2023-06-03T19:53:08.350Z,32.55
2023-06-03T19:58:13.752Z,32.79
2023-06-03T20:03:19.619Z,33.32
2023-06-03T20:08:23.357Z,33.83
2023-06-03T20:13:34.676Z,33.75
2023-06-03T20:18:40.392Z,33.53
2023-06-03T20:23:46.027Z,33.86
2023-06-03T20:28:49.668Z,34.29
2023-06-03T20:33:54.572Z,33.91
2023-06-03T20:38:57.986Z,34.26
2023-06-03T20:44:01.412Z,34.44
2023-06-03T20:49:06.306Z,34.52
2023-06-03T20:54:09.779Z,34.80
2023-06-03T20:59:13.220Z,34.91
2023-06-03T21:04:18.067Z,34.84
2023-06-03T21:09:21.685Z,35.01
2023-06-03T21:14:25.248Z,35.00
2023-06-03T21:19:31.370Z,35.25
2023-06-03T21:24:37.051Z,35.71
2023-06-03T21:29:40.648Z,35.69
2023-06-03T21:34:45.436Z,36.22
2023-06-03T21:39:48.940Z,35.94
2023-06-03T21:44:52.451Z,36.06
2023-06-03T21:49:57.223Z,36.49
2023-06-03T21:55:00.691Z,36.64
2023-06-03T22:00:11.495Z,36.87
2023-06-03T22:05:17.636Z,37.02
2023-06-03T22:10:21.220Z,38.03
2023-06-03T22:15:24.540Z,38.03
2023-06-03T22:20:29.765Z,38.88
2023-06-03T22:25:34.649Z,39.02
2023-06-03T22:30:38.062Z,39.30
2023-06-03T22:35:43.018Z,40.41
2023-06-03T22:40:49.943Z,38.88
2023-06-03T22:45:55.007Z,39.73
2023-06-03T22:50:59.846Z,39.13
2023-06-03T22:56:03.360Z,39.84
2023-06-03T23:01:07.037Z,39.93
2023-06-03T23:06:12.067Z,39.30
2023-06-03T23:11:15.530Z,40.35
2023-06-03T23:16:18.964Z,41.10
2023-06-03T23:21:25.963Z,39.85
2023-06-03T23:26:29.703Z,40.55
2023-06-03T23:31:33.253Z,40.22
2023-06-03T23:36:38.068Z,40.28
2023-06-03T23:41:41.442Z,41.04
2023-06-03T23:46:44.831Z,41.48
2023-06-03T23:51:49.631Z,41.22
2023-06-03T23:56:53.083Z,41.17
